WMSA/SZB METAR and TAF weather

Enter ICAO airport designator
Station Type Date Time Source
WMSA METAR 2022/06/26 08:00 UTC NOAA

WMSA 260800Z 17007KT 120V230 9999 FEW017CB 32/23 Q1007


Station Type Date Time Source
WMSA Decoded METAR 2022/06/26 08:00 UTC NOAA

Subang/Sultan Abdul Aziz Shah Airport, Malaysia (WMSA) 03-07N 101-32E
Jun 26, 2022 - 04:00 AM EDT / 2022.06.26 0800 UTC
Wind: from the S (170 degrees) at 8 MPH (7 KT) (direction variable):0
Visibility: greater than 7 mile(s):0
Sky conditions: mostly clear
Weather: Cumulonimbus clouds observed
Temperature: 89 F (32 C)
Heat index: 96.8 F (36.0 C):1
Dew Point: 73 F (23 C)
Relative Humidity: 59%
Pressure (altimeter): 29.74 in. Hg (1007 hPa)
ob: WMSA 260800Z 17007KT 120V230 9999 FEW017CB 32/23 Q1007
cycle: 8

Station Type Date Time Source
WMSA TAF 2022/06/26 06:10 UTC NOAA

TAF WMSA 260500Z 2606/2706 18006KT 9999 FEW017CB
TEMPO 2606/2610 3000 TSRA FEW005 FEW016CB SCT018
TEMPO 2622/2703 4000 TSRA FEW008 FEW017CB SCT027

Example: see airport list